Time;durP1;ratioP1;P1;durP2;ratioP2;P2;SDS_P1;SDS_P2;PMS_P1;PMS_P2;Temp;Humidity;BMP_temperature;BMP_pressure;BME280_temperature;BME280_humidity;BME280_pressure;Samples;Min_cycle;Max_cycle;Signal;HPM_P1;HPM_P2
2022/09/21 00:01:18;;;;;;;6.20;4.57;;;8.40;1.00;;;;;;4971652;28;20201;-61
2022/09/21 00:03:46;;;;;;;7.90;5.13;;;8.40;1.00;;;;;;4962788;28;20202;-61
2022/09/21 00:06:16;;;;;;;9.77;5.70;;;8.40;1.00;;;;;;4971647;28;20613;-62
2022/09/21 00:08:44;;;;;;;9.27;5.43;;;8.40;1.00;;;;;;4970246;28;20198;-61
2022/09/21 00:11:17;;;;;;;8.67;5.27;;;8.30;1.00;;;;;;4945126;28;20249;-61
2022/09/21 00:13:45;;;;;;;9.60;5.50;;;8.30;1.00;;;;;;4984985;28;20888;-62
2022/09/21 00:16:15;;;;;;;12.03;6.43;;;8.30;1.00;;;;;;4989910;28;20196;-62
2022/09/21 00:18:42;;;;;;;10.00;6.10;;;8.30;1.00;;;;;;4990451;28;20198;-62
2022/09/21 00:21:12;;;;;;;10.43;6.90;;;8.20;1.00;;;;;;5005515;28;20213;-61
2022/09/21 00:23:40;;;;;;;8.70;6.27;;;8.20;1.00;;;;;;4989885;28;20205;-61
2022/09/21 00:26:10;;;;;;;7.97;6.40;;;8.20;1.00;;;;;;4987748;28;20206;-63
2022/09/21 00:28:39;;;;;;;8.50;6.03;;;8.20;1.00;;;;;;4989908;28;20205;-62
2022/09/21 00:31:11;;;;;;;9.27;6.20;;;8.20;1.00;;;;;;4981514;28;20205;-60
2022/09/21 00:33:40;;;;;;;7.97;6.60;;;8.20;1.00;;;;;;4989692;28;20732;-60
2022/09/21 00:36:10;;;;;;;10.23;6.83;;;8.20;1.00;;;;;;4988374;28;20803;-61
2022/09/21 00:38:38;;;;;;;10.00;6.87;;;8.10;1.00;;;;;;4980724;28;20270;-61
2022/09/21 00:41:07;;;;;;;13.63;8.77;;;8.10;1.00;;;;;;4987383;28;20208;-62
2022/09/21 00:43:36;;;;;;;11.20;7.60;;;8.10;1.00;;;;;;4986757;28;20284;-61
2022/09/21 00:46:12;;;;;;;11.30;8.20;;;7.90;1.00;;;;;;4969587;28;20204;-62
2022/09/21 00:48:40;;;;;;;10.00;7.13;;;7.70;1.00;;;;;;4986886;28;20207;-63
2022/09/21 00:51:08;;;;;;;10.10;6.60;;;7.80;1.00;;;;;;5003017;28;20697;-60
2022/09/21 00:53:36;;;;;;;9.10;6.07;;;7.80;1.00;;;;;;4972187;28;20735;-61
2022/09/21 00:56:05;;;;;;;10.53;5.57;;;7.70;1.00;;;;;;5003273;28;20209;-62
2022/09/21 00:58:41;;;;;;;8.13;5.07;;;7.70;1.00;;;;;;4969535;28;20807;-62
2022/09/21 01:01:09;;;;;;;7.80;5.30;;;7.60;1.00;;;;;;4988339;28;20627;-61
2022/09/21 01:03:38;;;;;;;6.17;4.93;;;7.50;99.90;;;;;;4990322;28;20213;-61
2022/09/21 01:06:05;;;;;;;6.13;5.20;;;7.50;1.00;;;;;;4986454;28;20541;-61
2022/09/21 01:08:33;;;;;;;11.73;6.27;;;7.50;1.00;;;;;;4975901;28;20277;-61
2022/09/21 01:11:37;;;;;;;8.23;5.43;;;7.40;1.00;;;;;;5000467;28;20444;-62
2022/09/21 01:14:16;;;;;;;8.93;5.53;;;7.40;1.00;;;;;;4971847;28;20239;-61
2022/09/21 01:17:15;;;;;;;7.17;5.00;;;7.30;1.00;;;;;;4986100;28;20227;-61
2022/09/21 01:20:26;;;;;;;7.60;5.70;;;7.30;1.00;;;;;;4961254;28;20732;-61
2022/09/21 01:23:08;;;;;;;7.47;4.97;;;7.30;1.00;;;;;;4946162;28;20207;-61
2022/09/21 01:25:47;;;;;;;5.80;4.63;;;7.30;1.00;;;;;;4945452;28;20297;-61
2022/09/21 01:28:43;;;;;;;7.47;4.87;;;7.30;1.00;;;;;;4975288;28;20213;-61
2022/09/21 01:31:21;;;;;;;7.67;5.07;;;7.30;1.00;;;;;;4987149;28;20204;-62
2022/09/21 01:33:54;;;;;;;8.77;5.33;;;7.40;1.00;;;;;;4986675;28;20551;-62
2022/09/21 01:36:26;;;;;;;5.80;5.07;;;7.40;1.00;;;;;;4984398;28;20300;-61
2022/09/21 01:38:59;;;;;;;7.63;5.27;;;7.40;1.00;;;;;;4999264;28;20221;-61
2022/09/21 01:41:29;;;;;;;9.03;5.30;;;7.30;1.00;;;;;;4985661;28;20272;-61
2022/09/21 01:44:01;;;;;;;6.07;4.83;;;7.30;1.00;;;;;;4985645;28;20276;-63
2022/09/21 01:46:31;;;;;;;5.10;4.23;;;7.30;1.00;;;;;;4986982;28;20284;-61
2022/09/21 01:49:13;;;;;;;6.70;4.60;;;7.30;1.00;;;;;;4986239;28;20627;-62
2022/09/21 01:51:45;;;;;;;7.33;4.50;;;7.30;1.00;;;;;;4987669;28;20208;-61
2022/09/21 01:54:20;;;;;;;7.23;4.13;;;7.20;1.00;;;;;;4988726;28;20197;-62
2022/09/21 01:56:54;;;;;;;13.17;4.17;;;7.20;1.00;;;;;;4995554;28;20205;-61
2022/09/21 01:59:31;;;;;;;6.90;4.77;;;7.30;99.90;;;;;;4989391;28;20658;-61
2022/09/21 02:02:08;;;;;;;6.07;4.50;;;7.20;99.90;;;;;;4987628;28;20193;-62
2022/09/21 02:04:37;;;;;;;6.00;4.20;;;7.10;99.90;;;;;;4963308;28;20796;-62
2022/09/21 02:07:06;;;;;;;7.00;4.43;;;7.10;99.90;;;;;;4986312;28;21824;-62
2022/09/21 02:09:35;;;;;;;4.57;3.70;;;7.10;99.90;;;;;;4985182;28;20295;-61
2022/09/21 02:12:03;;;;;;;5.30;3.97;;;7.10;99.90;;;;;;4984665;28;20213;-62
2022/09/21 02:14:32;;;;;;;4.63;3.77;;;7.10;99.90;;;;;;4981801;28;20530;-62
2022/09/21 02:17:38;;;;;;;6.17;4.23;;;7.00;99.90;;;;;;4965032;28;20201;-61
2022/09/21 02:20:16;;;;;;;7.30;4.40;;;7.00;99.90;;;;;;4967811;28;20290;-61
2022/09/21 02:23:05;;;;;;;9.60;4.53;;;6.90;99.90;;;;;;4947124;28;20207;-61
2022/09/21 02:25:45;;;;;;;4.97;4.30;;;6.90;99.90;;;;;;4965445;28;20195;-63
2022/09/21 02:28:50;;;;;;;6.00;4.20;;;6.90;99.90;;;;;;4942518;28;20296;-62
2022/09/21 02:31:48;;;;;;;5.43;4.67;;;6.80;99.90;;;;;;4949138;28;20198;-65
2022/09/21 02:34:29;;;;;;;6.87;4.50;;;6.90;99.90;;;;;;4964386;28;20198;-66
2022/09/21 02:37:06;;;;;;;5.63;4.23;;;6.80;99.90;;;;;;4963211;28;20297;-65
2022/09/21 02:40:03;;;;;;;6.53;4.30;;;6.80;1.00;;;;;;4979952;28;21380;-66
2022/09/21 02:42:39;;;;;;;5.57;4.27;;;6.80;1.00;;;;;;4963768;28;20194;-65
2022/09/21 02:45:13;;;;;;;6.33;5.00;;;7.00;16.40;;;;;;4940022;28;20204;-66
2022/09/21 02:47:55;;;;;;;6.73;4.00;;;7.10;99.90;;;;;;4946853;28;20261;-68
2022/09/21 02:50:54;;;;;;;6.03;4.27;;;6.90;99.90;;;;;;4962413;28;20277;-68
2022/09/21 02:53:28;;;;;;;6.20;4.53;;;6.70;99.90;;;;;;4947484;28;20214;-66
2022/09/21 02:55:58;;;;;;;8.20;5.97;;;6.40;1.00;;;;;;4980269;28;20205;-67
2022/09/21 02:58:27;;;;;;;16.03;10.83;;;6.50;1.00;;;;;;4964395;28;20214;-67
2022/09/21 03:00:55;;;;;;;7.60;4.63;;;6.70;99.90;;;;;;4955862;28;20672;-66
2022/09/21 03:03:23;;;;;;;4.63;4.03;;;6.90;99.90;;;;;;4945981;28;20619;-67
2022/09/21 03:05:52;;;;;;;3.93;3.53;;;6.90;1.00;;;;;;4965803;28;20210;-66
2022/09/21 03:08:20;;;;;;;4.00;3.57;;;6.80;1.00;;;;;;4966567;28;20253;-66
2022/09/21 03:10:48;;;;;;;5.67;3.80;;;6.70;99.90;;;;;;4967075;28;20217;-67
2022/09/21 03:13:17;;;;;;;4.87;4.20;;;6.70;99.90;;;;;;4968220;28;20799;-66
2022/09/21 03:15:45;;;;;;;7.03;4.57;;;6.60;99.90;;;;;;4967074;28;20578;-67
2022/09/21 03:18:12;;;;;;;4.37;3.70;;;6.50;99.90;;;;;;4967538;28;20198;-67
2022/09/21 03:20:46;;;;;;;4.33;3.93;;;6.60;99.90;;;;;;4968166;28;20200;-67
2022/09/21 03:23:14;;;;;;;5.70;4.23;;;6.50;99.90;;;;;;4967061;28;20190;-66
2022/09/21 03:25:47;;;;;;;6.93;4.47;;;6.20;99.90;;;;;;4967892;28;20224;-69
2022/09/21 03:28:15;;;;;;;5.47;3.80;;;6.20;1.00;;;;;;4965625;28;20278;-67
2022/09/21 03:30:42;;;;;;;4.43;4.03;;;6.30;1.00;;;;;;4967398;28;20331;-67
2022/09/21 03:33:09;;;;;;;5.03;4.53;;;6.20;1.00;;;;;;4968743;28;20285;-66
2022/09/21 03:35:36;;;;;;;6.80;4.70;;;6.30;1.00;;;;;;4966321;28;20304;-66
2022/09/21 03:38:03;;;;;;;4.77;4.00;;;6.30;99.90;;;;;;4961159;28;20198;-67
2022/09/21 03:40:31;;;;;;;6.03;4.27;;;6.30;99.90;;;;;;4969583;28;20205;-64
2022/09/21 03:42:58;;;;;;;5.03;4.53;;;6.30;99.90;;;;;;4945093;28;20198;-67
2022/09/21 03:45:26;;;;;;;7.37;5.47;;;6.30;99.90;;;;;;4970352;28;20194;-67
2022/09/21 03:47:57;;;;;;;7.53;5.53;;;6.30;99.90;;;;;;4976579;28;20694;-67
2022/09/21 03:50:28;;;;;;;7.70;6.43;;;6.30;99.90;;;;;;4967364;28;20285;-65
2022/09/21 03:52:56;;;;;;;9.20;7.47;;;6.30;99.90;;;;;;4967644;28;20260;-66
2022/09/21 03:55:24;;;;;;;9.53;8.30;;;6.30;99.90;;;;;;4966658;28;20211;-66
2022/09/21 03:57:51;;;;;;;10.53;9.07;;;6.30;99.90;;;;;;4950860;28;20190;-68
2022/09/21 04:00:18;;;;;;;8.43;7.53;;;6.30;99.90;;;;;;4984386;28;20190;-67
2022/09/21 04:02:45;;;;;;;7.00;6.20;;;6.20;99.90;;;;;;4986244;28;20209;-66
2022/09/21 04:05:14;;;;;;;6.80;5.23;;;6.20;99.90;;;;;;4968011;28;20609;-67
2022/09/21 04:07:44;;;;;;;6.67;5.00;;;6.20;99.90;;;;;;4950219;28;20198;-68
2022/09/21 04:10:14;;;;;;;6.53;4.93;;;6.10;99.90;;;;;;4968176;28;20636;-68
2022/09/21 04:12:43;;;;;;;8.10;4.63;;;6.10;99.90;;;;;;4957389;28;20241;-68
2022/09/21 04:15:11;;;;;;;5.17;4.67;;;6.00;99.90;;;;;;4987771;28;20221;-67
2022/09/21 04:17:39;;;;;;;5.43;4.53;;;6.00;99.90;;;;;;4973171;28;20209;-69
2022/09/21 04:20:07;;;;;;;6.13;4.83;;;6.00;99.90;;;;;;4991302;28;20276;-68
2022/09/21 04:22:35;;;;;;;6.47;5.83;;;5.90;99.90;;;;;;4990396;28;20727;-69
2022/09/21 04:25:09;;;;;;;7.00;5.83;;;5.90;99.90;;;;;;4987562;28;20201;-68
2022/09/21 04:27:36;;;;;;;9.27;6.87;;;5.90;99.90;;;;;;4985086;28;20213;-69
2022/09/21 04:30:06;;;;;;;9.50;5.90;;;5.80;99.90;;;;;;4987515;28;20205;-68
2022/09/21 04:32:33;;;;;;;12.07;5.83;;;5.80;1.00;;;;;;4984789;28;20277;-68
2022/09/21 04:35:00;;;;;;;7.77;6.30;;;5.80;99.90;;;;;;4986497;28;20688;-68
2022/09/21 04:37:27;;;;;;;8.10;6.50;;;5.70;1.00;;;;;;4972726;28;20201;-69
2022/09/21 04:39:54;;;;;;;12.70;6.93;;;5.60;1.00;;;;;;4985265;28;20197;-65
2022/09/21 04:42:22;;;;;;;9.57;7.47;;;5.60;1.00;;;;;;4985217;28;20208;-64
2022/09/21 04:44:50;;;;;;;9.27;6.83;;;5.60;1.00;;;;;;4985241;28;20196;-66
2022/09/21 04:47:18;;;;;;;8.40;7.00;;;5.60;1.00;;;;;;4968878;28;20232;-67
2022/09/21 04:49:45;;;;;;;9.63;7.73;;;5.50;1.00;;;;;;4986696;28;20196;-66
2022/09/21 04:52:12;;;;;;;9.03;8.03;;;5.50;1.00;;;;;;4986143;28;20261;-66
2022/09/21 04:54:45;;;;;;;9.43;7.90;;;5.50;1.00;;;;;;4968563;28;20249;-68
2022/09/21 04:57:13;;;;;;;14.37;9.53;;;5.50;1.00;;;;;;4968081;28;20218;-65
2022/09/21 04:59:40;;;;;;;11.03;8.50;;;5.40;1.00;;;;;;5000880;28;20434;-64
2022/09/21 05:02:07;;;;;;;13.63;9.07;;;5.50;1.00;;;;;;4954095;28;20197;-66
2022/09/21 05:04:35;;;;;;;10.30;7.87;;;5.50;1.00;;;;;;4993711;28;20846;-65
2022/09/21 05:07:02;;;;;;;12.57;7.90;;;5.50;1.00;;;;;;4961794;28;20573;-66
2022/09/21 05:12:15;;;;;;;13.30;8.83;;;5.40;1.00;;;;;;4985177;28;20233;-65
2022/09/21 05:14:43;;;;;;;8.90;8.00;;;5.40;1.00;;;;;;4987132;28;20186;-66
2022/09/21 05:17:11;;;;;;;10.40;7.73;;;5.40;1.00;;;;;;4984681;28;20209;-66
2022/09/21 05:19:39;;;;;;;8.67;7.47;;;5.40;1.00;;;;;;4982492;28;20193;-66
2022/09/21 05:22:06;;;;;;;8.93;7.53;;;5.40;1.00;;;;;;4984865;28;20896;-65
2022/09/21 05:24:33;;;;;;;9.77;6.93;;;5.40;1.00;;;;;;4967563;28;20198;-68
2022/09/21 05:27:00;;;;;;;8.87;6.90;;;5.50;1.00;;;;;;4985964;28;20197;-65
2022/09/21 05:29:27;;;;;;;11.50;7.80;;;5.60;1.00;;;;;;4968794;28;20209;-65
2022/09/21 05:32:01;;;;;;;10.83;7.80;;;5.60;1.00;;;;;;4968866;28;20197;-66
2022/09/21 05:34:34;;;;;;;8.63;7.20;;;5.60;1.00;;;;;;4985264;28;20205;-65
2022/09/21 05:37:32;;;;;;;10.57;7.40;;;5.60;1.00;;;;;;4960913;28;20304;-65
2022/09/21 05:39:59;;;;;;;9.07;6.73;;;5.60;1.00;;;;;;4883468;28;20286;-65
2022/09/21 05:42:26;;;;;;;7.60;6.80;;;5.70;1.00;;;;;;4974589;28;20197;-68
2022/09/21 05:44:54;;;;;;;11.57;7.17;;;5.80;1.00;;;;;;4988588;28;20194;-69
2022/09/21 05:47:43;;;;;;;11.57;7.77;;;5.90;1.00;;;;;;4985869;28;20205;-69
2022/09/21 05:50:32;;;;;;;8.23;7.43;;;6.00;99.90;;;;;;4989105;28;20208;-68
2022/09/21 05:53:47;;;;;;;9.83;7.50;;;6.40;99.90;;;;;;4971704;28;20214;-66
2022/09/21 05:56:51;;;;;;;8.07;5.60;;;8.50;1.00;;;;;;4965292;28;20309;-66
2022/09/21 05:59:36;;;;;;;6.13;4.53;;;10.80;11.80;;;;;;4985397;28;20205;-66
2022/09/21 06:02:18;;;;;;;5.70;4.13;;;12.10;1.00;;;;;;4987700;28;20198;-68
2022/09/21 06:04:48;;;;;;;5.43;3.30;;;13.30;99.90;;;;;;4986459;28;20193;-66
2022/09/21 06:07:15;;;;;;;13.33;8.67;;;14.80;99.90;;;;;;4985056;28;20665;-66
2022/09/21 06:09:45;;;;;;;24.13;18.70;;;15.70;99.90;;;;;;4984027;28;20819;-65
2022/09/21 06:12:12;;;;;;;31.53;23.83;;;16.70;1.00;;;;;;4981522;28;20773;-66
2022/09/21 06:14:39;;;;;;;27.85;22.23;;;17.40;1.00;;;;;;4948512;28;20292;-67
2022/09/21 06:17:06;;;;;;;21.40;17.55;;;17.80;1.00;;;;;;4965989;28;20220;-67
2022/09/21 06:19:33;;;;;;;7.15;6.38;;;18.50;1.00;;;;;;4957385;28;20285;-69
2022/09/21 06:22:00;;;;;;;4.43;3.75;;;18.70;1.00;;;;;;4955489;28;20210;-69
2022/09/21 06:24:27;;;;;;;4.47;3.35;;;19.10;1.00;;;;;;4953684;28;20202;-68
2022/09/21 06:26:54;;;;;;;4.22;3.03;;;19.10;1.00;;;;;;4964318;28;20261;-68
2022/09/21 06:29:22;;;;;;;4.55;2.90;;;19.70;1.00;;;;;;4946040;28;20205;-68
2022/09/21 06:31:50;;;;;;;3.80;3.40;;;19.70;1.00;;;;;;4952787;28;20203;-67
2022/09/21 06:34:17;;;;;;;3.90;3.33;;;19.70;1.00;;;;;;4963541;28;20206;-68
2022/09/21 06:36:44;;;;;;;4.65;3.42;;;20.00;1.00;;;;;;4965004;28;20279;-68
2022/09/21 06:39:11;;;;;;;4.90;3.65;;;20.50;14.50;;;;;;4966173;28;20202;-66
2022/09/21 06:41:38;;;;;;;3.78;3.40;;;20.80;57.30;;;;;;4948140;28;20203;-67
2022/09/21 06:44:09;;;;;;;5.15;3.05;;;22.10;82.40;;;;;;4964502;28;20194;-68
2022/09/21 06:46:36;;;;;;;3.47;3.17;;;23.10;87.60;;;;;;4948067;28;20218;-66
2022/09/21 06:49:03;;;;;;;9.35;3.83;;;22.90;78.70;;;;;;4947514;28;20202;-69
2022/09/21 06:51:30;;;;;;;5.10;3.60;;;23.00;77.80;;;;;;4951561;28;20198;-67
2022/09/21 06:53:57;;;;;;;4.18;3.67;;;23.20;75.40;;;;;;4958056;28;20631;-68
2022/09/21 06:56:25;;;;;;;4.55;3.72;;;24.00;76.20;;;;;;4982390;28;20305;-69
2022/09/21 06:58:53;;;;;;;3.97;3.60;;;23.40;68.50;;;;;;4957553;28;20236;-69
2022/09/21 07:01:20;;;;;;;4.68;3.80;;;23.80;70.90;;;;;;4967648;28;20201;-69
2022/09/21 07:03:50;;;;;;;3.97;3.58;;;24.60;66.40;;;;;;4982832;28;20257;-66
2022/09/21 07:06:17;;;;;;;12.30;10.60;;;25.70;61.80;;;;;;4959975;28;20685;-69
2022/09/21 07:08:44;;;;;;;3.97;3.40;;;26.30;65.60;;;;;;4959218;28;20297;-65
2022/09/21 07:11:31;;;;;;;4.03;3.63;;;26.10;55.90;;;;;;4954288;28;20273;-69
2022/09/21 07:13:58;;;;;;;5.72;4.15;;;27.60;57.40;;;;;;4996820;28;20320;-68
2022/09/21 07:16:26;;;;;;;4.18;3.75;;;28.60;53.50;;;;;;4970088;28;20268;-66
2022/09/21 07:18:53;;;;;;;4.65;3.65;;;28.30;50.70;;;;;;4984688;28;20225;-65
2022/09/21 07:21:21;;;;;;;4.43;3.80;;;27.20;45.20;;;;;;4987449;28;21081;-67
2022/09/21 07:23:48;;;;;;;5.70;3.80;;;26.90;43.20;;;;;;5001364;28;20248;-66
2022/09/21 07:26:15;;;;;;;15.10;10.10;;;27.40;43.90;;;;;;4969651;28;20200;-68
2022/09/21 07:28:42;;;;;;;8.38;7.55;;;27.50;46.10;;;;;;4987087;28;20202;-70
2022/09/21 07:31:12;;;;;;;4.75;4.25;;;28.40;44.00;;;;;;4967650;28;20205;-69
2022/09/21 07:33:41;;;;;;;9.00;8.10;;;29.20;38.90;;;;;;4947278;28;20340;-69
2022/09/21 07:36:09;;;;;;;11.27;7.28;;;29.60;37.80;;;;;;4986476;28;20210;-70
2022/09/21 07:38:40;;;;;;;9.38;7.45;;;29.90;34.60;;;;;;4986568;28;20217;-68
2022/09/21 07:41:11;;;;;;;5.63;4.43;;;29.60;33.30;;;;;;5001367;28;20205;-69
2022/09/21 07:43:39;;;;;;;4.82;4.32;;;30.60;34.80;;;;;;5002165;28;20189;-69
2022/09/21 07:46:09;;;;;;;6.95;6.05;;;26.20;24.80;;;;;;4986223;28;20206;-69
2022/09/21 07:48:36;;;;;;;6.78;5.20;;;28.70;31.60;;;;;;4964486;28;20201;-69
2022/09/21 07:51:06;;;;;;;5.70;5.13;;;30.10;30.70;;;;;;4986371;28;20202;-71
2022/09/21 07:53:34;;;;;;;6.88;4.78;;;31.50;29.30;;;;;;4969461;28;20189;-67
2022/09/21 07:56:12;;;;;;;5.55;4.80;;;30.70;24.60;;;;;;4960103;28;20201;-70
2022/09/21 08:01:27;;;;;;;5.85;4.57;;;28.80;25.30;;;;;;5001901;28;20232;-69
2022/09/21 08:03:56;;;;;;;7.47;6.68;;;30.90;26.90;;;;;;4990116;28;20193;-70
2022/09/21 08:06:25;;;;;;;9.73;7.07;;;32.20;25.10;;;;;;4988220;28;20201;-71
2022/09/21 08:08:52;;;;;;;9.52;5.88;;;32.90;23.60;;;;;;4971440;28;20907;-69
2022/09/21 08:11:24;;;;;;;6.53;4.93;;;33.60;22.30;;;;;;4988011;28;20201;-71
2022/09/21 08:13:53;;;;;;;8.32;5.60;;;34.90;22.70;;;;;;4963431;28;20759;-71
2022/09/21 08:16:21;;;;;;;8.27;5.13;;;35.00;18.30;;;;;;4988508;28;20265;-70
2022/09/21 08:18:49;;;;;;;7.45;4.95;;;33.20;18.10;;;;;;5003039;28;20201;-69
2022/09/21 08:21:16;;;;;;;6.93;5.85;;;33.50;15.30;;;;;;4969215;28;20467;-69
2022/09/21 08:23:43;;;;;;;9.48;7.68;;;26.60;11.20;;;;;;4984381;28;20205;-69
2022/09/21 08:26:17;;;;;;;9.57;6.05;;;26.80;15.60;;;;;;4985598;28;20205;-68
2022/09/21 08:28:50;;;;;;;8.73;6.93;;;27.60;17.80;;;;;;4972221;28;20208;-70
2022/09/21 08:31:20;;;;;;;12.65;9.70;;;29.10;21.20;;;;;;4966057;28;20202;-69
2022/09/21 08:33:48;;;;;;;12.27;9.32;;;29.30;14.30;;;;;;4988338;28;20274;-68
2022/09/21 08:36:16;;;;;;;12.02;7.25;;;27.70;17.20;;;;;;5000684;28;22572;-69
2022/09/21 08:38:44;;;;;;;9.85;7.15;;;25.90;12.40;;;;;;4982895;28;20203;-71
2022/09/21 08:41:48;;;;;;;11.13;9.07;;;30.80;31.70;;;;;;4971187;28;20190;-68
2022/09/21 08:44:44;;;;;;;8.65;6.45;;;30.20;16.00;;;;;;4984928;28;20212;-70
2022/09/21 08:47:19;;;;;;;7.85;7.05;;;30.50;18.00;;;;;;4978666;28;20249;-70
2022/09/21 08:49:52;;;;;;;9.90;8.25;;;29.70;16.70;;;;;;4984710;28;20189;-69
2022/09/21 08:52:23;;;;;;;7.80;6.00;;;27.50;12.60;;;;;;4959525;28;20696;-67
2022/09/21 08:54:50;;;;;;;10.32;7.45;;;31.40;18.40;;;;;;4982512;28;20207;-69
2022/09/21 08:57:18;;;;;;;10.20;7.72;;;31.40;12.00;;;;;;4985542;28;20221;-69
2022/09/21 08:59:47;;;;;;;11.07;7.63;;;26.60;11.70;;;;;;4962123;28;20204;-69
2022/09/21 09:02:32;;;;;;;11.18;7.50;;;26.20;12.30;;;;;;4987246;28;20608;-69
2022/09/21 09:04:59;;;;;;;10.27;8.10;;;30.00;14.70;;;;;;4988717;28;20185;-68
2022/09/21 09:07:51;;;;;;;8.52;6.05;;;31.60;16.80;;;;;;4987438;28;20276;-70
2022/09/21 09:10:24;;;;;;;8.93;5.72;;;33.00;15.40;;;;;;4987401;28;20217;-70
2022/09/21 09:13:08;;;;;;;7.05;5.20;;;34.90;15.70;;;;;;4980287;28;20245;-69
2022/09/21 09:15:53;;;;;;;8.60;6.18;;;36.30;13.20;;;;;;4982507;28;20206;-69
2022/09/21 09:18:45;;;;;;;9.52;5.95;;;35.90;11.40;;;;;;4967416;28;20220;-67
2022/09/21 09:21:24;;;;;;;7.22;6.22;;;37.10;11.60;;;;;;4964786;28;20285;-70
2022/09/21 09:24:03;;;;;;;7.00;5.18;;;34.30;4.00;;;;;;4973810;28;20670;-68
2022/09/21 09:26:50;;;;;;;8.85;5.47;;;36.30;9.90;;;;;;4946661;28;20301;-68
2022/09/21 09:29:51;;;;;;;8.23;5.30;;;36.40;7.30;;;;;;4961767;28;20194;-69
2022/09/21 09:32:23;;;;;;;6.22;4.95;;;37.60;8.30;;;;;;4949936;28;20289;-69
2022/09/21 09:35:25;;;;;;;7.25;5.55;;;38.00;4.10;;;;;;4950996;28;20713;-69
2022/09/21 09:38:33;;;;;;;12.32;9.38;;;34.20;1.00;;;;;;4944917;28;20221;-68
2022/09/21 09:41:06;;;;;;;5.78;5.18;;;34.40;21.80;;;;;;4966415;28;20292;-69
2022/09/21 09:43:57;;;;;;;7.00;4.65;;;36.20;2.40;;;;;;4981852;28;20210;-68
2022/09/21 09:46:36;;;;;;;7.47;4.10;;;37.30;5.30;;;;;;4959897;28;20212;-67
2022/09/21 09:49:27;;;;;;;4.20;3.80;;;36.20;1.50;;;;;;4949941;28;20194;-68
2022/09/21 09:51:54;;;;;;;9.25;5.88;;;36.40;2.50;;;;;;4963107;28;20631;-68
2022/09/21 09:54:25;;;;;;;5.22;4.18;;;36.80;1.50;;;;;;4960892;28;20202;-70
2022/09/21 09:56:54;;;;;;;9.05;7.10;;;38.50;2.90;;;;;;4961147;28;20293;-69
2022/09/21 09:59:43;;;;;;;5.72;4.00;;;37.90;2.00;;;;;;4964156;28;20205;-69
2022/09/21 10:02:21;;;;;;;6.13;3.30;;;39.40;2.70;;;;;;4965497;28;20202;-68
2022/09/21 10:05:17;;;;;;;6.53;3.63;;;33.10;1.00;;;;;;4950670;28;20215;-69
2022/09/21 10:07:47;;;;;;;5.85;3.80;;;31.40;1.00;;;;;;4965148;28;20202;-70
2022/09/21 10:10:23;;;;;;;6.97;5.22;;;28.20;1.00;;;;;;4966010;28;20309;-69
2022/09/21 10:12:53;;;;;;;6.47;4.65;;;33.10;2.70;;;;;;4966486;28;20951;-67
2022/09/21 10:15:23;;;;;;;10.77;4.03;;;33.50;1.00;;;;;;4967308;28;20209;-69
2022/09/21 10:18:12;;;;;;;6.93;3.55;;;34.50;1.00;;;;;;4962980;28;20233;-70
2022/09/21 10:20:51;;;;;;;11.82;4.57;;;30.80;1.00;;;;;;4981382;28;20733;-69
2022/09/21 10:23:18;;;;;;;6.75;4.32;;;30.20;1.00;;;;;;4950741;28;20194;-70
2022/09/21 10:25:57;;;;;;;5.50;3.65;;;31.00;2.70;;;;;;4979807;28;20202;-67
2022/09/21 10:28:25;;;;;;;8.27;6.65;;;34.40;2.30;;;;;;4963208;28;20218;-70
2022/09/21 10:31:15;;;;;;;5.88;2.78;;;33.20;1.00;;;;;;4943125;28;20646;-70
2022/09/21 10:34:00;;;;;;;5.90;3.50;;;34.30;1.00;;;;;;4947353;28;20231;-69
2022/09/21 10:36:36;;;;;;;4.90;2.20;;;34.40;1.00;;;;;;4962776;28;20194;-70
2022/09/21 10:39:27;;;;;;;4.63;1.67;;;32.70;1.00;;;;;;4963255;28;20183;-69
2022/09/21 10:41:56;;;;;;;6.40;2.40;;;32.00;1.00;;;;;;4962751;28;20285;-70
2022/09/21 10:44:43;;;;;;;6.75;3.20;;;31.00;1.00;;;;;;4962924;28;20197;-69
2022/09/21 10:47:20;;;;;;;3.97;1.48;;;31.00;1.00;;;;;;4967791;28;20230;-68
2022/09/21 10:49:53;;;;;;;4.10;1.70;;;31.70;1.00;;;;;;4960264;28;20678;-67
2022/09/21 10:52:24;;;;;;;4.30;1.98;;;29.80;8.60;;;;;;4968192;28;20238;-67
2022/09/21 10:54:54;;;;;;;4.25;2.22;;;29.90;1.00;;;;;;4944139;28;20213;-68
2022/09/21 10:57:24;;;;;;;5.25;1.77;;;31.90;1.00;;;;;;4966406;28;20225;-67
2022/09/21 10:59:51;;;;;;;5.32;2.90;;;31.30;1.00;;;;;;4967722;28;20206;-70
2022/09/21 11:02:33;;;;;;;4.00;1.85;;;32.10;11.80;;;;;;4950046;28;20226;-70
2022/09/21 11:05:09;;;;;;;6.30;1.70;;;31.80;1.00;;;;;;4968749;28;20564;-72
2022/09/21 11:07:43;;;;;;;4.85;2.00;;;32.50;1.00;;;;;;4940876;28;20281;-70
2022/09/21 11:10:25;;;;;;;3.58;1.70;;;31.50;1.00;;;;;;4967493;28;20198;-68
2022/09/21 11:13:16;;;;;;;4.95;2.03;;;30.10;1.00;;;;;;4965590;28;20245;-70
2022/09/21 11:15:57;;;;;;;4.07;1.70;;;32.30;1.00;;;;;;4966400;28;20196;-67
2022/09/21 11:18:39;;;;;;;3.55;1.73;;;31.80;1.00;;;;;;4964912;28;20222;-70
2022/09/21 11:21:34;;;;;;;4.80;1.92;;;31.30;1.00;;;;;;4959001;28;20311;-69
2022/09/21 11:24:02;;;;;;;6.20;1.77;;;31.80;1.00;;;;;;4963440;28;20294;-70
2022/09/21 11:26:50;;;;;;;4.57;2.50;;;30.10;1.00;;;;;;4964339;28;20205;-69
2022/09/21 11:29:37;;;;;;;5.68;2.50;;;29.30;1.00;;;;;;4964671;28;20277;-69
2022/09/21 11:32:31;;;;;;;4.32;2.20;;;31.10;1.00;;;;;;4966100;28;20205;-68
2022/09/21 11:35:10;;;;;;;3.53;1.35;;;32.10;1.00;;;;;;4979126;28;20205;-69
2022/09/21 11:37:55;;;;;;;2.47;1.20;;;30.40;1.00;;;;;;4949372;28;20206;-69
2022/09/21 11:40:50;;;;;;;6.15;2.00;;;26.40;1.00;;;;;;4949951;28;20277;-70
2022/09/21 11:43:23;;;;;;;3.33;1.45;;;27.20;1.00;;;;;;4969586;28;20203;-66
2022/09/21 11:46:05;;;;;;;4.28;1.80;;;27.20;1.00;;;;;;4951409;28;20206;-69
2022/09/21 11:48:39;;;;;;;2.08;1.17;;;26.40;1.00;;;;;;4967033;28;20196;-69
2022/09/21 11:51:37;;;;;;;4.40;1.08;;;25.90;1.00;;;;;;4944567;28;20293;-69
2022/09/21 11:54:41;;;;;;;2.35;1.10;;;26.40;1.00;;;;;;4969330;28;20625;-72
2022/09/21 11:57:27;;;;;;;2.40;1.10;;;25.70;1.00;;;;;;4950745;28;20225;-70
2022/09/21 12:00:07;;;;;;;2.60;1.17;;;26.40;1.00;;;;;;4966321;28;20553;-67
2022/09/21 12:02:49;;;;;;;2.50;1.00;;;26.00;1.00;;;;;;4949334;28;20202;-69
2022/09/21 12:05:45;;;;;;;4.97;1.10;;;27.70;1.00;;;;;;4969135;28;20204;-69
2022/09/21 12:08:33;;;;;;;2.45;1.10;;;27.00;1.00;;;;;;4948349;28;20727;-70
2022/09/21 12:11:51;;;;;;;2.28;1.00;;;27.00;1.00;;;;;;4968190;28;20205;-66
2022/09/21 12:14:22;;;;;;;4.50;1.40;;;26.00;1.00;;;;;;4919405;28;20321;-69
2022/09/21 12:17:04;;;;;;;2.05;1.10;;;25.50;1.00;;;;;;4965851;28;21345;-67
2022/09/21 12:19:43;;;;;;;3.15;1.50;;;25.90;1.00;;;;;;4966339;28;20282;-69
2022/09/21 12:22:17;;;;;;;3.80;1.20;;;26.50;1.00;;;;;;4968159;28;20700;-68
2022/09/21 12:24:53;;;;;;;3.88;1.60;;;25.90;1.00;;;;;;4968800;28;20186;-70
2022/09/21 12:27:45;;;;;;;2.38;1.15;;;25.40;1.00;;;;;;4967767;28;21055;-66
2022/09/21 12:30:18;;;;;;;4.40;1.30;;;25.00;1.00;;;;;;4966727;28;20700;-69
2022/09/21 12:32:52;;;;;;;4.35;1.13;;;23.90;1.00;;;;;;4944724;28;20301;-71
2022/09/21 12:35:43;;;;;;;3.20;1.30;;;24.10;1.00;;;;;;4969093;28;20190;-70
2022/09/21 12:38:49;;;;;;;4.43;1.33;;;24.40;1.00;;;;;;4970575;28;20218;-68
2022/09/21 12:41:27;;;;;;;3.70;1.60;;;24.00;1.00;;;;;;4934493;28;20699;-69
2022/09/21 12:44:00;;;;;;;2.30;1.10;;;24.20;1.00;;;;;;4970569;28;20198;-68
2022/09/21 12:46:36;;;;;;;3.03;1.20;;;23.90;1.00;;;;;;4952271;28;20229;-70
2022/09/21 12:49:13;;;;;;;3.40;1.20;;;22.50;1.00;;;;;;4963891;28;20225;-68
2022/09/21 12:51:49;;;;;;;2.63;0.98;;;21.80;1.00;;;;;;4966429;28;20281;-70
2022/09/21 12:54:41;;;;;;;1.95;1.17;;;22.80;1.00;;;;;;4966130;28;20206;-70
2022/09/21 12:57:21;;;;;;;3.65;1.20;;;23.40;1.00;;;;;;4980096;28;20198;-70
2022/09/21 13:00:21;;;;;;;3.05;1.23;;;23.10;1.80;;;;;;4949875;28;20202;-67
2022/09/21 13:03:04;;;;;;;3.22;1.50;;;22.30;1.00;;;;;;4969222;28;20220;-68
2022/09/21 13:05:42;;;;;;;2.33;1.10;;;22.30;1.00;;;;;;4970710;28;20253;-71
2022/09/21 13:08:12;;;;;;;3.75;1.45;;;22.20;1.00;;;;;;4971133;28;20199;-66
2022/09/21 13:10:44;;;;;;;3.17;1.35;;;22.00;1.00;;;;;;4953742;28;20214;-70
2022/09/21 13:13:33;;;;;;;4.05;1.45;;;20.90;1.00;;;;;;4952381;28;20329;-67
2022/09/21 13:16:01;;;;;;;3.45;1.38;;;20.40;1.00;;;;;;4969436;28;20690;-70
2022/09/21 13:18:33;;;;;;;3.50;1.75;;;20.00;1.00;;;;;;4970439;28;20627;-69
2022/09/21 13:21:21;;;;;;;3.25;1.25;;;20.20;1.00;;;;;;4945224;28;20337;-69
2022/09/21 13:24:22;;;;;;;2.75;1.25;;;20.20;1.00;;;;;;4971087;28;20195;-70
2022/09/21 13:27:03;;;;;;;6.10;1.77;;;21.20;1.00;;;;;;4971213;28;20288;-67
2022/09/21 13:29:33;;;;;;;3.17;1.20;;;21.20;1.00;;;;;;4971166;28;20208;-69
2022/09/21 13:32:10;;;;;;;3.97;1.42;;;21.10;1.00;;;;;;4970884;28;20661;-70
2022/09/21 13:34:42;;;;;;;2.65;1.15;;;20.90;1.00;;;;;;4970251;28;20209;-70
2022/09/21 13:37:17;;;;;;;2.00;1.27;;;20.90;1.00;;;;;;4985390;28;20214;-70
2022/09/21 13:40:09;;;;;;;5.15;1.15;;;20.00;1.00;;;;;;4971421;28;20201;-70
2022/09/21 13:42:47;;;;;;;1.67;1.10;;;19.80;1.00;;;;;;4970479;28;20208;-70